createdAt,value
2022-12-31T00:01:08.991Z,2.90
2022-12-31T00:03:36.775Z,4.90
2022-12-31T00:06:13.446Z,3.07
2022-12-31T00:08:41.233Z,3.97
2022-12-31T00:11:09.768Z,2.30
2022-12-31T00:13:39.843Z,2.70
2022-12-31T00:16:11.938Z,4.10
2022-12-31T00:18:39.906Z,2.70
2022-12-31T00:21:10.874Z,2.60
2022-12-31T00:23:38.314Z,2.30
2022-12-31T00:26:06.687Z,2.10
2022-12-31T00:28:34.219Z,2.20
2022-12-31T00:31:21.076Z,2.23
2022-12-31T00:33:48.511Z,2.67
2022-12-31T00:36:17.981Z,2.67
2022-12-31T00:38:46.363Z,2.40
2022-12-31T00:41:14.350Z,2.20
2022-12-31T00:43:41.604Z,2.70
2022-12-31T00:46:09.379Z,2.43
2022-12-31T00:48:40.111Z,2.20
2022-12-31T00:51:08.404Z,2.20
2022-12-31T00:53:35.955Z,2.33
2022-12-31T00:56:04.607Z,2.13
2022-12-31T00:58:31.883Z,2.53
2022-12-31T01:00:59.269Z,2.60
2022-12-31T01:03:26.727Z,2.00
2022-12-31T01:05:59.384Z,1.70
2022-12-31T01:08:26.636Z,2.83
2022-12-31T01:11:12.653Z,2.10
2022-12-31T01:13:40.050Z,2.70
2022-12-31T01:16:10.966Z,2.43
2022-12-31T01:18:38.632Z,2.07
2022-12-31T01:21:07.483Z,2.50
2022-12-31T01:23:35.353Z,2.27
2022-12-31T01:26:03.836Z,1.83
2022-12-31T01:28:33.497Z,2.10
2022-12-31T01:31:03.737Z,2.30
2022-12-31T01:33:31.066Z,1.83
2022-12-31T01:36:02.683Z,1.90
2022-12-31T01:38:30.111Z,2.50
2022-12-31T01:40:58.408Z,2.13
2022-12-31T01:43:43.142Z,2.07
2022-12-31T01:46:11.222Z,1.80
2022-12-31T01:48:40.056Z,4.67
2022-12-31T01:51:10.278Z,2.27
2022-12-31T01:53:40.810Z,2.73
2022-12-31T01:56:08.511Z,2.50
2022-12-31T01:58:46.310Z,2.20
2022-12-31T02:01:16.905Z,2.10
2022-12-31T02:03:44.286Z,2.20
2022-12-31T02:06:15.102Z,2.27
2022-12-31T02:08:42.624Z,2.00
2022-12-31T02:11:28.810Z,2.07
2022-12-31T02:13:58.737Z,3.00
2022-12-31T02:16:32.499Z,2.27
2022-12-31T02:19:02.769Z,6.03
2022-12-31T02:21:56.556Z,3.27
2022-12-31T02:24:39.085Z,1.97
2022-12-31T02:27:23.982Z,2.00
2022-12-31T02:30:06.879Z,2.67
2022-12-31T02:33:02.359Z,3.00
2022-12-31T02:35:31.525Z,2.03
2022-12-31T02:38:06.604Z,2.03
2022-12-31T02:40:36.341Z,2.00
2022-12-31T02:43:05.269Z,2.43
2022-12-31T02:45:35.161Z,2.43
2022-12-31T02:48:08.491Z,2.40
2022-12-31T02:50:35.797Z,3.77
2022-12-31T02:53:21.054Z,2.67
2022-12-31T02:55:53.295Z,2.30
2022-12-31T02:58:50.813Z,2.37
2022-12-31T03:01:40.702Z,3.13
2022-12-31T03:04:27.377Z,2.60
2022-12-31T03:06:54.748Z,2.50
2022-12-31T03:09:21.981Z,2.93
2022-12-31T03:12:07.868Z,4.03
2022-12-31T03:14:35.588Z,2.50
2022-12-31T03:17:02.894Z,3.90
2022-12-31T03:19:49.225Z,4.43
2022-12-31T03:22:29.112Z,2.57
2022-12-31T03:25:23.429Z,2.83
2022-12-31T03:27:52.457Z,2.50
2022-12-31T03:30:21.544Z,3.47
2022-12-31T03:32:49.261Z,2.60
2022-12-31T03:35:19.169Z,3.00
2022-12-31T03:37:46.400Z,3.00
2022-12-31T03:40:14.196Z,2.90
2022-12-31T03:42:41.680Z,4.07
2022-12-31T03:45:09.777Z,3.13
2022-12-31T03:47:37.432Z,2.70
2022-12-31T03:50:05.101Z,5.67
2022-12-31T03:52:32.228Z,2.50
2022-12-31T03:54:59.397Z,2.33
2022-12-31T03:57:26.520Z,2.90
2022-12-31T03:59:53.858Z,2.90
2022-12-31T04:02:28.130Z,2.80
2022-12-31T04:04:56.322Z,2.93
2022-12-31T04:07:23.551Z,3.07
2022-12-31T04:09:50.729Z,2.67
2022-12-31T04:12:17.957Z,2.40
2022-12-31T04:14:45.179Z,2.63
2022-12-31T04:17:12.382Z,2.47
2022-12-31T04:19:39.527Z,2.00
2022-12-31T04:22:06.896Z,2.87
2022-12-31T04:24:34.126Z,2.47
2022-12-31T04:27:07.233Z,2.70
2022-12-31T04:29:34.712Z,2.60
2022-12-31T04:32:02.041Z,2.37
2022-12-31T04:34:29.247Z,3.07
2022-12-31T04:36:56.582Z,2.40
2022-12-31T04:39:24.228Z,2.83
2022-12-31T04:41:51.361Z,2.33
2022-12-31T04:44:18.578Z,2.50
2022-12-31T04:46:45.722Z,2.87
2022-12-31T04:49:13.195Z,4.13
2022-12-31T04:51:40.356Z,3.73
2022-12-31T04:54:07.508Z,2.70
2022-12-31T04:56:36.853Z,2.80
2022-12-31T04:59:05.295Z,2.60
2022-12-31T05:01:33.326Z,2.67
2022-12-31T05:04:00.644Z,2.90
2022-12-31T05:06:27.965Z,2.13
2022-12-31T05:08:55.689Z,2.23
2022-12-31T05:11:22.852Z,3.23
2022-12-31T05:13:49.951Z,2.53
2022-12-31T05:16:17.127Z,2.60
2022-12-31T05:18:44.271Z,3.83
2022-12-31T05:21:16.017Z,2.50
2022-12-31T05:23:43.140Z,3.90
2022-12-31T05:26:10.381Z,4.60
2022-12-31T05:28:37.480Z,3.07
2022-12-31T05:31:04.689Z,2.57
2022-12-31T05:33:32.654Z,2.50
2022-12-31T05:35:59.899Z,2.90
2022-12-31T05:38:27.071Z,2.77
2022-12-31T05:41:01.049Z,2.93
2022-12-31T05:43:28.162Z,2.30
2022-12-31T05:45:56.677Z,3.97
2022-12-31T05:48:23.848Z,2.50
2022-12-31T05:50:51.044Z,2.30
2022-12-31T05:53:18.362Z,2.30
2022-12-31T05:55:46.587Z,2.30
2022-12-31T05:58:14.184Z,2.53
2022-12-31T06:00:41.445Z,3.30
2022-12-31T06:03:08.872Z,3.80
2022-12-31T06:05:36.263Z,3.60
2022-12-31T06:08:03.715Z,4.63
2022-12-31T06:10:30.833Z,3.00
2022-12-31T06:12:58.004Z,2.37
2022-12-31T06:15:25.171Z,2.63
2022-12-31T06:17:52.429Z,2.30
2022-12-31T06:20:19.639Z,3.93
2022-12-31T06:22:46.769Z,2.30
2022-12-31T06:25:14.122Z,4.37
2022-12-31T06:27:41.262Z,2.93
2022-12-31T06:30:08.828Z,3.07
2022-12-31T06:32:36.032Z,2.30
2022-12-31T06:35:03.280Z,3.33
2022-12-31T06:37:32.755Z,2.07
2022-12-31T06:40:01.128Z,2.60
2022-12-31T06:42:31.927Z,2.70
2022-12-31T06:44:59.456Z,2.57
2022-12-31T06:47:26.684Z,2.50
2022-12-31T06:49:54.001Z,2.50
2022-12-31T06:52:21.676Z,2.57
2022-12-31T06:54:49.022Z,2.37
2022-12-31T06:57:16.287Z,2.93
2022-12-31T06:59:44.714Z,2.30
2022-12-31T07:02:20.088Z,2.30
2022-12-31T07:04:56.247Z,2.37
2022-12-31T07:07:29.941Z,2.30
2022-12-31T07:10:09.507Z,1.90
2022-12-31T07:12:42.748Z,2.33
2022-12-31T07:15:35.168Z,2.37
2022-12-31T07:18:07.246Z,2.10
2022-12-31T07:20:34.611Z,2.63
2022-12-31T07:23:01.916Z,2.20
2022-12-31T07:25:30.440Z,2.20
2022-12-31T07:28:16.584Z,2.40
2022-12-31T07:30:56.341Z,2.87
2022-12-31T07:33:29.740Z,2.60
2022-12-31T07:36:02.111Z,2.87
2022-12-31T07:38:41.223Z,2.70
2022-12-31T07:41:13.287Z,2.57
2022-12-31T07:43:53.769Z,2.90
2022-12-31T07:46:32.064Z,2.27
2022-12-31T07:49:02.115Z,2.20
2022-12-31T07:51:29.410Z,2.20
2022-12-31T07:53:56.517Z,3.20
2022-12-31T07:56:23.631Z,2.57
2022-12-31T07:59:00.025Z,2.60
2022-12-31T08:01:51.484Z,2.40
2022-12-31T08:04:38.812Z,2.50
2022-12-31T08:07:16.538Z,2.80
2022-12-31T08:09:47.954Z,2.70
2022-12-31T08:12:15.619Z,3.97
2022-12-31T08:14:48.679Z,2.93
2022-12-31T08:17:17.523Z,2.87
2022-12-31T08:19:45.767Z,4.10
2022-12-31T08:22:34.580Z,2.63
2022-12-31T08:25:09.045Z,2.87
2022-12-31T08:27:41.949Z,3.60
2022-12-31T08:30:09.301Z,2.87
2022-12-31T08:32:36.420Z,2.80
2022-12-31T08:35:14.333Z,2.90
2022-12-31T08:37:48.558Z,3.50
2022-12-31T08:40:20.236Z,2.70
2022-12-31T08:43:00.859Z,3.70
2022-12-31T08:45:33.920Z,3.37
2022-12-31T08:48:03.520Z,3.17
2022-12-31T08:50:31.108Z,3.07
2022-12-31T08:52:58.458Z,2.60
2022-12-31T08:55:25.934Z,3.07
2022-12-31T08:58:07.813Z,3.50
2022-12-31T09:00:37.806Z,3.87
2022-12-31T09:03:19.450Z,3.57
2022-12-31T09:06:05.576Z,3.50
2022-12-31T09:08:35.775Z,3.70
2022-12-31T09:11:09.788Z,6.03
2022-12-31T09:14:01.259Z,5.30
2022-12-31T09:16:28.498Z,3.50
2022-12-31T09:18:57.091Z,3.30
2022-12-31T09:21:24.475Z,3.53
2022-12-31T09:23:53.849Z,3.37
2022-12-31T09:26:31.950Z,3.03
2022-12-31T09:29:18.425Z,3.30
2022-12-31T09:31:58.677Z,3.17
2022-12-31T09:34:45.081Z,5.50
2022-12-31T09:37:25.577Z,3.07
2022-12-31T09:39:54.181Z,3.50
2022-12-31T09:42:43.802Z,3.10
2022-12-31T09:45:21.197Z,3.27
2022-12-31T09:47:48.373Z,4.60
2022-12-31T09:50:21.705Z,2.70
2022-12-31T09:53:07.626Z,4.60
2022-12-31T09:55:46.159Z,4.37
2022-12-31T09:58:32.284Z,3.40
2022-12-31T10:01:22.676Z,3.23
2022-12-31T10:04:03.996Z,3.63
2022-12-31T10:06:34.185Z,4.67
2022-12-31T10:09:21.993Z,3.53
2022-12-31T10:12:03.322Z,3.30
2022-12-31T10:14:41.069Z,2.90
2022-12-31T10:17:31.169Z,5.60
2022-12-31T10:20:07.476Z,3.40
2022-12-31T10:22:34.837Z,3.17
2022-12-31T10:25:04.796Z,3.67
2022-12-31T10:27:43.354Z,9.23
2022-12-31T10:30:13.683Z,3.33
2022-12-31T10:32:51.144Z,3.20
2022-12-31T10:35:33.621Z,3.30
2022-12-31T10:38:00.773Z,3.20
2022-12-31T10:40:51.351Z,3.10
2022-12-31T10:43:30.398Z,2.97
2022-12-31T10:46:22.600Z,3.37
2022-12-31T10:49:02.485Z,3.03
2022-12-31T10:51:43.443Z,3.23
2022-12-31T10:54:19.523Z,3.83
2022-12-31T10:57:06.830Z,3.87
2022-12-31T10:59:54.515Z,3.00
2022-12-31T11:02:21.769Z,5.97
2022-12-31T11:05:07.949Z,3.40
2022-12-31T11:07:54.610Z,3.93
2022-12-31T11:10:35.469Z,3.17
2022-12-31T11:13:21.297Z,2.93
2022-12-31T11:15:59.981Z,4.83
2022-12-31T11:18:27.087Z,4.07
2022-12-31T11:21:04.301Z,2.83
2022-12-31T11:23:46.580Z,3.07
2022-12-31T11:26:32.864Z,3.57
2022-12-31T11:29:12.185Z,4.23
2022-12-31T11:31:59.569Z,3.87
2022-12-31T11:34:26.787Z,3.77
2022-12-31T11:37:06.198Z,5.53
2022-12-31T11:39:39.291Z,3.50
2022-12-31T11:42:21.221Z,3.43
2022-12-31T11:44:51.412Z,3.30
2022-12-31T11:47:27.646Z,3.13
2022-12-31T11:50:04.154Z,4.80
2022-12-31T11:52:48.922Z,5.50
2022-12-31T11:55:24.715Z,3.07
2022-12-31T11:57:52.519Z,3.33
2022-12-31T12:00:28.173Z,4.90
2022-12-31T12:03:00.113Z,5.93
2022-12-31T12:05:27.459Z,3.83
2022-12-31T12:07:54.993Z,4.63
2022-12-31T12:10:33.777Z,5.77
2022-12-31T12:13:10.890Z,2.73
2022-12-31T12:15:38.043Z,2.70
2022-12-31T12:18:19.065Z,5.30
2022-12-31T12:20:46.930Z,3.07
2022-12-31T12:23:16.580Z,2.90
2022-12-31T12:25:44.593Z,3.10
2022-12-31T12:28:32.024Z,3.00
2022-12-31T12:31:00.855Z,3.60
2022-12-31T12:33:29.766Z,5.40
2022-12-31T12:36:13.661Z,3.30
2022-12-31T12:38:41.098Z,6.50
2022-12-31T12:41:11.374Z,3.17
2022-12-31T12:43:39.352Z,2.63
2022-12-31T12:46:19.556Z,3.83
2022-12-31T12:48:49.349Z,3.70
2022-12-31T12:51:22.952Z,3.50
2022-12-31T12:53:56.380Z,2.90
2022-12-31T12:56:30.506Z,3.20
2022-12-31T12:59:04.027Z,4.00
2022-12-31T13:01:41.858Z,3.10
2022-12-31T13:04:33.964Z,3.30
2022-12-31T13:07:13.322Z,4.07
2022-12-31T13:09:59.327Z,4.73
2022-12-31T13:12:26.452Z,2.83
2022-12-31T13:14:56.700Z,3.03
2022-12-31T13:17:27.971Z,7.10
2022-12-31T13:20:03.800Z,2.83
2022-12-31T13:22:39.227Z,3.00
2022-12-31T13:25:06.400Z,4.70
2022-12-31T13:27:39.608Z,3.40
2022-12-31T13:30:18.913Z,2.63
2022-12-31T13:32:53.716Z,2.47
2022-12-31T13:35:33.633Z,3.97
2022-12-31T13:38:05.815Z,2.60
2022-12-31T13:40:53.534Z,2.40
2022-12-31T13:43:32.709Z,2.50
2022-12-31T13:46:12.904Z,5.37
2022-12-31T13:48:45.182Z,2.90
2022-12-31T13:51:16.566Z,3.17
2022-12-31T13:53:54.230Z,2.37
2022-12-31T13:56:25.092Z,4.50
2022-12-31T13:58:56.712Z,2.93
2022-12-31T14:01:53.629Z,2.50
2022-12-31T14:04:39.687Z,2.97
2022-12-31T14:07:12.663Z,2.90
2022-12-31T14:09:39.875Z,2.97
2022-12-31T14:12:19.452Z,2.73
2022-12-31T14:14:49.657Z,3.40
2022-12-31T14:17:20.785Z,4.63
2022-12-31T14:19:48.178Z,3.57
2022-12-31T14:22:21.558Z,2.37
2022-12-31T14:24:50.962Z,3.23
2022-12-31T14:27:30.364Z,2.60
2022-12-31T14:29:59.612Z,2.53
2022-12-31T14:32:39.928Z,2.30
2022-12-31T14:35:17.338Z,2.60
2022-12-31T14:38:08.026Z,3.00
2022-12-31T14:40:46.198Z,3.80
2022-12-31T14:43:25.152Z,3.17
2022-12-31T14:46:02.018Z,3.07
2022-12-31T14:48:49.836Z,2.70
2022-12-31T14:51:17.617Z,9.70
2022-12-31T14:53:54.834Z,7.13
2022-12-31T14:56:28.731Z,3.27
2022-12-31T14:58:57.698Z,5.03
2022-12-31T15:01:26.363Z,3.10
2022-12-31T15:03:57.227Z,3.70
2022-12-31T15:06:26.439Z,4.47
2022-12-31T15:09:01.103Z,3.43
2022-12-31T15:11:50.521Z,3.17
2022-12-31T15:14:20.724Z,4.30
2022-12-31T15:16:53.792Z,3.40
2022-12-31T15:19:20.937Z,3.37
2022-12-31T15:21:55.630Z,2.70
2022-12-31T15:24:24.460Z,3.77
2022-12-31T15:26:57.276Z,5.27
2022-12-31T15:29:29.421Z,4.00
2022-12-31T15:31:58.813Z,2.77
2022-12-31T15:34:34.813Z,2.80
2022-12-31T15:37:06.971Z,4.07
2022-12-31T15:39:37.312Z,2.20
2022-12-31T15:42:37.360Z,3.03
2022-12-31T15:44:55.632Z,2.90
2022-12-31T15:47:35.933Z,3.90
2022-12-31T15:50:06.414Z,2.57
2022-12-31T15:52:42.503Z,2.93
2022-12-31T15:55:16.903Z,4.10
2022-12-31T15:57:46.793Z,2.67
2022-12-31T16:00:19.412Z,3.23
2022-12-31T16:02:47.728Z,3.30
2022-12-31T16:05:21.938Z,3.40
2022-12-31T16:07:49.205Z,5.33
2022-12-31T16:10:19.944Z,6.30
2022-12-31T16:12:47.253Z,4.90
2022-12-31T16:15:23.557Z,3.13
2022-12-31T16:18:05.013Z,2.90
2022-12-31T16:20:33.541Z,5.00
2022-12-31T16:23:03.226Z,4.30
2022-12-31T16:25:32.642Z,4.07
2022-12-31T16:28:02.276Z,5.60
2022-12-31T16:30:35.635Z,4.23
2022-12-31T16:33:04.913Z,3.80
2022-12-31T16:35:33.353Z,3.57
2022-12-31T16:38:01.575Z,3.77
2022-12-31T16:40:28.886Z,2.57
2022-12-31T16:42:58.098Z,6.53
2022-12-31T16:45:30.833Z,5.70
2022-12-31T16:48:18.646Z,3.80
2022-12-31T16:50:47.107Z,4.03
2022-12-31T16:53:17.479Z,2.87
2022-12-31T16:55:50.879Z,3.20
2022-12-31T16:58:20.388Z,3.87
2022-12-31T17:00:48.945Z,3.10
2022-12-31T17:03:22.307Z,3.27
2022-12-31T17:05:55.414Z,3.20
2022-12-31T17:08:24.631Z,4.10
2022-12-31T17:10:51.888Z,3.47
2022-12-31T17:13:29.358Z,3.63
2022-12-31T17:15:58.178Z,2.87
2022-12-31T17:18:26.974Z,3.80
2022-12-31T17:20:55.282Z,3.53
2022-12-31T17:23:27.504Z,4.07
2022-12-31T17:26:01.682Z,3.17
2022-12-31T17:28:32.982Z,3.60
2022-12-31T17:31:01.587Z,3.47
2022-12-31T17:33:29.614Z,4.20
2022-12-31T17:35:58.099Z,4.20
2022-12-31T17:38:25.453Z,6.40
2022-12-31T17:40:55.671Z,7.40
2022-12-31T17:43:25.108Z,4.80
2022-12-31T17:45:54.831Z,4.97
2022-12-31T17:48:24.468Z,7.70
2022-12-31T17:50:53.731Z,3.43
2022-12-31T17:53:21.171Z,5.77
2022-12-31T17:55:49.946Z,3.80
2022-12-31T17:58:29.150Z,4.83
2022-12-31T18:00:57.442Z,6.27
2022-12-31T18:03:24.683Z,4.27
2022-12-31T18:05:52.085Z,5.03
2022-12-31T18:08:19.272Z,4.03
2022-12-31T18:10:46.461Z,5.30
2022-12-31T18:13:17.447Z,6.10
2022-12-31T18:15:44.988Z,5.50
2022-12-31T18:18:25.559Z,7.40
2022-12-31T18:21:03.533Z,5.30
2022-12-31T18:23:39.689Z,6.30
2022-12-31T18:26:06.987Z,6.53
2022-12-31T18:28:34.533Z,6.20
2022-12-31T18:31:01.748Z,6.53
2022-12-31T18:33:28.928Z,5.77
2022-12-31T18:36:11.428Z,6.23
2022-12-31T18:38:39.380Z,4.17
2022-12-31T18:41:07.010Z,5.40
2022-12-31T18:43:34.250Z,6.17
2022-12-31T18:46:01.547Z,6.30
2022-12-31T18:48:28.923Z,9.23
2022-12-31T18:50:57.772Z,10.80
2022-12-31T18:53:25.055Z,11.30
2022-12-31T18:55:56.726Z,20.17
2022-12-31T18:58:24.026Z,7.50
2022-12-31T19:00:51.938Z,9.87
2022-12-31T19:03:23.241Z,8.70
2022-12-31T19:05:51.763Z,7.57
2022-12-31T19:08:19.310Z,8.43
2022-12-31T19:10:47.181Z,14.27
2022-12-31T19:13:16.396Z,7.23
2022-12-31T19:15:45.015Z,8.90
2022-12-31T19:18:12.175Z,16.40
2022-12-31T19:20:44.264Z,5.83
2022-12-31T19:23:18.792Z,9.60
2022-12-31T19:25:46.557Z,12.87
2022-12-31T19:28:18.095Z,8.70
2022-12-31T19:30:45.761Z,12.00
2022-12-31T19:33:13.556Z,11.30
2022-12-31T19:35:41.554Z,12.67
2022-12-31T19:38:20.465Z,15.33
2022-12-31T19:40:48.142Z,8.27
2022-12-31T19:43:16.801Z,7.57
2022-12-31T19:45:44.646Z,10.07
2022-12-31T19:48:25.837Z,15.33
2022-12-31T19:50:57.549Z,11.27
2022-12-31T19:53:28.540Z,9.13
2022-12-31T19:55:55.693Z,15.03
2022-12-31T19:58:27.354Z,5.53
2022-12-31T20:01:01.715Z,5.40
2022-12-31T20:03:29.938Z,7.53
2022-12-31T20:06:08.241Z,6.20
2022-12-31T20:08:36.313Z,7.63
2022-12-31T20:11:17.325Z,12.30
2022-12-31T20:13:44.664Z,10.30
2022-12-31T20:16:14.098Z,13.53
2022-12-31T20:18:42.860Z,16.57
2022-12-31T20:21:21.688Z,11.70
2022-12-31T20:23:49.635Z,27.77
2022-12-31T20:26:17.712Z,12.77
2022-12-31T20:28:46.567Z,15.50
2022-12-31T20:31:18.088Z,9.13
2022-12-31T20:33:45.624Z,8.17
2022-12-31T20:36:13.881Z,8.90
2022-12-31T20:38:41.461Z,8.57
2022-12-31T20:41:09.917Z,9.83
2022-12-31T20:43:37.603Z,9.33
2022-12-31T20:46:14.860Z,15.90
2022-12-31T20:48:43.133Z,7.47
2022-12-31T20:51:10.273Z,14.37
2022-12-31T20:53:37.476Z,8.43
2022-12-31T20:56:08.476Z,11.40
2022-12-31T20:58:35.967Z,12.00
2022-12-31T21:01:06.182Z,9.40
2022-12-31T21:06:20.937Z,10.10
2022-12-31T21:08:48.214Z,14.10
2022-12-31T21:11:34.158Z,22.80
2022-12-31T21:14:01.633Z,13.40
2022-12-31T21:16:28.892Z,14.20
2022-12-31T21:18:56.074Z,9.13
2022-12-31T21:21:24.756Z,10.80
2022-12-31T21:23:51.898Z,16.93
2022-12-31T21:26:19.050Z,13.53
2022-12-31T21:28:46.229Z,20.30
2022-12-31T21:31:14.324Z,20.13
2022-12-31T21:33:45.678Z,37.57
2022-12-31T21:36:13.082Z,22.53
2022-12-31T21:38:40.365Z,25.97
2022-12-31T21:41:08.338Z,15.50
2022-12-31T21:43:37.779Z,16.63
2022-12-31T21:46:06.568Z,18.27
2022-12-31T21:48:34.050Z,38.77
2022-12-31T21:51:10.034Z,18.50
2022-12-31T21:53:37.702Z,17.20
2022-12-31T21:56:08.511Z,24.13
2022-12-31T21:58:40.476Z,31.70
2022-12-31T22:01:26.832Z,23.60
2022-12-31T22:03:54.122Z,28.50
2022-12-31T22:06:23.832Z,28.33
2022-12-31T22:08:55.522Z,21.13
2022-12-31T22:11:23.958Z,17.23
2022-12-31T22:13:51.125Z,20.77
2022-12-31T22:16:20.027Z,29.97
2022-12-31T22:18:47.479Z,19.00
2022-12-31T22:21:19.964Z,29.40
2022-12-31T22:23:48.703Z,14.80
2022-12-31T22:26:16.811Z,19.00
2022-12-31T22:28:44.922Z,20.10
2022-12-31T22:31:16.324Z,22.57
2022-12-31T22:33:43.765Z,28.13
2022-12-31T22:36:12.214Z,39.17
2022-12-31T22:38:39.439Z,54.17
2022-12-31T22:41:08.280Z,35.83
2022-12-31T22:43:36.382Z,36.40
2022-12-31T22:46:13.738Z,35.97
2022-12-31T22:48:41.848Z,24.97
2022-12-31T22:51:09.850Z,29.93
2022-12-31T22:53:38.442Z,63.03
2022-12-31T22:56:05.809Z,74.77
2022-12-31T22:58:32.915Z,140.70
2022-12-31T23:01:00.242Z,441.23
2022-12-31T23:03:27.670Z,168.47
2022-12-31T23:05:55.094Z,237.57
2022-12-31T23:08:24.088Z,397.03
2022-12-31T23:11:06.023Z,339.73
2022-12-31T23:13:59.626Z,297.13
2022-12-31T23:16:47.745Z,279.63
2022-12-31T23:19:34.832Z,293.80
2022-12-31T23:22:21.736Z,157.80
2022-12-31T23:24:49.519Z,189.97
2022-12-31T23:27:17.086Z,154.77
2022-12-31T23:29:47.444Z,121.53
2022-12-31T23:32:18.378Z,103.47
2022-12-31T23:34:47.252Z,129.17
2022-12-31T23:37:14.777Z,109.73
2022-12-31T23:39:44.758Z,83.93
2022-12-31T23:42:12.272Z,55.03
2022-12-31T23:44:39.601Z,75.57
2022-12-31T23:47:07.162Z,59.27
2022-12-31T23:49:34.600Z,51.93
2022-12-31T23:52:01.963Z,55.73
2022-12-31T23:54:29.550Z,48.50
2022-12-31T23:56:56.838Z,62.50
2022-12-31T23:59:24.122Z,56.83
